Time;durP1;ratioP1;P1;durP2;ratioP2;P2;SDS_P1;SDS_P2;PMS_P1;PMS_P2;Temp;Humidity;BMP_temperature;BMP_pressure;BME280_temperature;BME280_humidity;BME280_pressure;Samples;Min_cycle;Max_cycle;Signal;HPM_P1;HPM_P2
2022/10/06 00:02:09;;;;;;;6.82;1.55;;;;;;;13.70;nan;101995.63;5092143;28;20067;-54
2022/10/06 00:04:34;;;;;;;9.13;1.42;;;;;;;13.28;nan;101944.75;5092303;28;20044;-51
2022/10/06 00:06:59;;;;;;;7.70;1.80;;;;;;;13.47;nan;101999.75;5092286;28;20044;-52
2022/10/06 00:09:25;;;;;;;5.80;1.63;;;;;;;13.54;nan;102029.56;5094108;28;20040;-56
2022/10/06 00:11:50;;;;;;;10.63;2.30;;;;;;;13.46;nan;102020.94;5112646;28;20058;-57
2022/10/06 00:14:15;;;;;;;8.50;2.10;;;;;;;13.44;nan;102030.69;5111300;28;20043;-54
2022/10/06 00:16:41;;;;;;;8.32;1.30;;;;;;;13.17;nan;101974.09;5112601;28;20410;-50
2022/10/06 00:19:06;;;;;;;8.27;1.50;;;;;;;13.56;nan;102025.09;5112557;28;20088;-56
2022/10/06 00:21:31;;;;;;;7.80;1.42;;;;;;;13.62;nan;102042.59;5112165;28;20024;-55
2022/10/06 00:23:57;;;;;;;7.38;1.98;;;;;;;13.60;nan;102037.31;5112070;28;20441;-54
2022/10/06 00:26:23;;;;;;;10.18;1.98;;;;;;;13.60;nan;102057.66;5111326;28;20066;-59
2022/10/06 00:28:48;;;;;;;8.90;2.13;;;;;;;13.54;nan;102048.94;5112292;28;20126;-55
2022/10/06 00:31:15;;;;;;;8.27;1.85;;;;;;;13.19;nan;101997.84;5112254;28;20059;-54
2022/10/06 00:33:40;;;;;;;10.27;2.65;;;;;;;13.42;nan;102048.41;5112240;28;20484;-55
2022/10/06 00:36:06;;;;;;;9.05;2.17;;;;;;;13.47;nan;102078.22;5112342;28;20115;-55
2022/10/06 00:38:31;;;;;;;13.55;2.53;;;;;;;13.09;nan;102017.47;5094469;28;20123;-56
2022/10/06 00:40:57;;;;;;;5.90;1.88;;;;;;;13.41;nan;102088.97;5112500;28;20340;-54
2022/10/06 00:43:41;;;;;;;8.75;1.95;;;;;;;13.45;nan;102083.59;5094155;28;20494;-48
2022/10/06 00:46:09;;;;;;;10.98;2.15;;;;;;;13.44;nan;102096.81;5112113;28;20035;-57
2022/10/06 00:48:34;;;;;;;9.57;2.20;;;;;;;13.40;nan;102090.72;5094271;28;20119;-56
2022/10/06 00:51:00;;;;;;;8.00;2.38;;;;;;;12.76;nan;101996.19;5112155;28;20509;-51
2022/10/06 00:53:26;;;;;;;6.47;1.40;;;;;;;13.41;nan;102123.34;5094230;28;20038;-54
2022/10/06 00:55:53;;;;;;;7.10;2.10;;;;;;;13.40;nan;102117.19;5112127;28;20097;-55
2022/10/06 00:58:19;;;;;;;13.23;2.15;;;;;;;13.27;nan;102101.66;5112020;28;20059;-53
2022/10/06 01:00:45;;;;;;;7.80;1.85;;;;;;;13.39;nan;102117.22;5110893;28;20028;-51
2022/10/06 01:03:15;;;;;;;10.07;2.10;;;;;;;13.08;nan;102073.88;5110648;28;20501;-54
2022/10/06 01:05:45;;;;;;;12.10;2.47;;;;;;;13.36;nan;102138.47;5094063;28;20040;-52
2022/10/06 01:08:11;;;;;;;6.45;2.35;;;;;;;13.28;nan;102120.09;5096497;28;20300;-54
2022/10/06 01:10:36;;;;;;;9.43;1.75;;;;;;;13.25;nan;102140.50;5097590;28;20059;-51
2022/10/06 01:13:02;;;;;;;10.15;2.33;;;;;;;13.16;nan;102127.47;5115328;28;20514;-52
2022/10/06 01:15:27;;;;;;;9.63;1.95;;;;;;;13.10;nan;102139.06;5097655;28;20047;-51
2022/10/06 01:18:05;;;;;;;7.32;1.73;;;;;;;12.80;nan;102111.47;5115704;28;20035;-52
2022/10/06 01:20:30;;;;;;;10.18;2.00;;;;;;;12.93;nan;102139.38;5097242;28;20390;-54
2022/10/06 01:23:01;;;;;;;6.38;1.48;;;;;;;12.98;nan;102165.72;5080555;28;20039;-55
2022/10/06 01:25:27;;;;;;;10.07;1.90;;;;;;;12.85;nan;102141.31;5097073;28;20035;-53
2022/10/06 01:27:53;;;;;;;8.77;1.80;;;;;;;12.95;nan;102164.03;5097345;28;20481;-54
2022/10/06 01:30:49;;;;;;;8.93;1.90;;;;;;;12.86;nan;102169.50;5097191;28;20035;-54
2022/10/06 01:33:15;;;;;;;8.20;1.95;;;;;;;12.81;nan;102179.25;5095514;28;20043;-55
2022/10/06 01:35:40;;;;;;;16.67;2.97;;;;;;;12.53;nan;102130.53;5115121;28;20043;-55
2022/10/06 01:38:06;;;;;;;7.82;1.85;;;;;;;12.74;nan;102177.66;5079887;28;20042;-51
2022/10/06 01:40:31;;;;;;;7.10;2.22;;;;;;;12.70;nan;102178.63;5115220;28;20126;-52
2022/10/06 01:42:56;;;;;;;6.68;2.20;;;;;;;12.71;nan;102179.50;5114627;28;20038;-57
2022/10/06 01:45:22;;;;;;;9.20;2.30;;;;;;;12.52;nan;102139.34;5114455;28;20038;-56
2022/10/06 01:47:47;;;;;;;9.70;2.33;;;;;;;12.71;nan;102180.38;5096902;28;20127;-57
2022/10/06 01:50:13;;;;;;;6.60;1.85;;;;;;;12.80;nan;102188.09;5115055;28;20081;-55
2022/10/06 01:52:39;;;;;;;7.70;1.60;;;;;;;12.80;nan;102193.41;5114900;28;20038;-49
2022/10/06 01:55:05;;;;;;;7.78;1.85;;;;;;;12.76;nan;102207.56;5114967;28;20024;-53
2022/10/06 01:57:30;;;;;;;8.85;1.90;;;;;;;12.79;nan;102191.66;5079591;28;20032;-58
2022/10/06 01:59:55;;;;;;;8.75;1.88;;;;;;;12.79;nan;102189.00;5096258;28;20023;-53
2022/10/06 02:02:21;;;;;;;6.55;1.95;;;;;;;12.76;nan;102175.84;5096772;28;20039;-55
2022/10/06 02:04:47;;;;;;;9.93;2.08;;;;;;;12.82;nan;102180.13;5096551;28;20394;-53
2022/10/06 02:07:12;;;;;;;10.48;1.85;;;;;;;12.56;nan;102138.41;5079449;28;20043;-55
2022/10/06 02:09:38;;;;;;;6.70;1.45;;;;;;;12.97;nan;102203.63;5114409;28;20064;-52
2022/10/06 02:12:04;;;;;;;9.57;2.22;;;;;;;12.94;nan;102183.41;5114738;28;20126;-56
2022/10/06 02:14:30;;;;;;;12.35;2.80;;;;;;;12.77;nan;102147.66;5114666;28;20061;-57
2022/10/06 02:16:56;;;;;;;7.90;2.05;;;;;;;13.06;nan;102194.63;5114536;28;20035;-54
2022/10/06 02:19:22;;;;;;;8.27;2.22;;;;;;;13.13;nan;102209.50;5113377;28;20043;-56
2022/10/06 02:21:47;;;;;;;12.52;2.30;;;;;;;12.80;nan;102155.53;5114426;28;20436;-51
2022/10/06 02:24:12;;;;;;;9.63;2.13;;;;;;;12.95;nan;102190.44;5114578;28;20440;-54
2022/10/06 02:26:37;;;;;;;8.82;1.88;;;;;;;13.15;nan;102218.25;5114144;28;20054;-53
2022/10/06 02:29:03;;;;;;;9.02;1.55;;;;;;;13.21;nan;102220.78;5114310;28;20028;-53
2022/10/06 02:31:28;;;;;;;8.13;1.58;;;;;;;12.91;nan;102177.31;5114302;28;20036;-58
2022/10/06 02:33:53;;;;;;;10.10;2.70;;;;;;;13.19;nan;102230.53;5113978;28;20042;-51
2022/10/06 02:36:19;;;;;;;11.80;1.77;;;;;;;13.20;nan;102226.94;5114025;28;20119;-51
2022/10/06 02:38:44;;;;;;;12.73;2.25;;;;;;;13.15;nan;102242.06;5114115;28;20043;-56
2022/10/06 02:41:10;;;;;;;10.52;2.17;;;;;;;12.47;nan;102140.34;5113907;28;20039;-60
2022/10/06 02:43:36;;;;;;;13.50;2.20;;;;;;;12.68;nan;102191.00;5095801;28;20031;-52
2022/10/06 02:46:04;;;;;;;8.90;2.10;;;;;;;12.91;nan;102244.25;5095644;28;20065;-53
2022/10/06 02:48:29;;;;;;;13.43;2.20;;;;;;;12.79;nan;102236.56;5113797;28;20046;-57
2022/10/06 02:51:03;;;;;;;11.20;2.28;;;;;;;12.51;nan;102224.78;5095339;28;20039;-50
2022/10/06 02:53:29;;;;;;;10.43;2.30;;;;;;;12.59;nan;102243.13;5114047;28;20039;-58
2022/10/06 02:56:04;;;;;;;7.68;2.40;;;;;;;12.34;nan;102225.09;5113837;28;20032;-55
2022/10/06 02:58:29;;;;;;;7.85;2.35;;;;;;;12.65;nan;102278.22;5095506;28;20027;-53
2022/10/06 03:01:07;;;;;;;11.07;2.63;;;;;;;12.71;nan;102278.13;5095539;28;20036;-54
2022/10/06 03:03:34;;;;;;;9.43;2.13;;;;;;;12.71;nan;102285.16;5114061;28;20055;-51
2022/10/06 03:06:05;;;;;;;10.30;2.22;;;;;;;12.64;nan;102299.41;5095335;28;20043;-50
2022/10/06 03:08:30;;;;;;;13.20;2.83;;;;;;;12.61;nan;102294.19;5095224;28;20055;-51
2022/10/06 03:11:00;;;;;;;9.48;2.72;;;;;;;12.57;nan;102293.34;5094814;28;20087;-52
2022/10/06 03:13:26;;;;;;;9.50;2.05;;;;;;;12.19;nan;102237.69;5113212;28;20027;-53
2022/10/06 03:15:51;;;;;;;9.93;2.00;;;;;;;12.62;nan;102309.09;5113309;28;20146;-49
2022/10/06 03:18:17;;;;;;;10.10;2.22;;;;;;;12.60;nan;102303.00;5113451;28;20431;-52
2022/10/06 03:20:42;;;;;;;8.48;1.92;;;;;;;12.30;nan;102265.66;5095126;28;20039;-52
2022/10/06 03:23:07;;;;;;;9.82;2.00;;;;;;;12.30;nan;102268.28;5112789;28;20043;-52
2022/10/06 03:25:32;;;;;;;11.20;2.53;;;;;;;12.58;nan;102328.56;5113354;28;20065;-49
2022/10/06 03:27:58;;;;;;;10.07;2.58;;;;;;;12.50;nan;102311.94;5113058;28;20069;-57
2022/10/06 03:30:23;;;;;;;10.48;2.40;;;;;;;12.30;nan;102301.72;5112586;28;20422;-55
2022/10/06 03:32:51;;;;;;;8.02;2.40;;;;;;;12.19;nan;102279.91;5113079;28;20229;-51
2022/10/06 03:35:16;;;;;;;9.93;1.77;;;;;;;12.48;nan;102337.53;5113237;28;20035;-52
2022/10/06 03:37:41;;;;;;;12.02;2.22;;;;;;;12.45;nan;102338.44;5113175;28;20444;-54
2022/10/06 03:40:07;;;;;;;13.75;2.38;;;;;;;12.41;nan;102348.19;5112832;28;20044;-51
2022/10/06 03:42:32;;;;;;;10.43;2.58;;;;;;;12.10;nan;102299.41;5112900;28;20032;-54
2022/10/06 03:44:58;;;;;;;14.25;2.75;;;;;;;12.06;nan;102291.56;5112885;28;20497;-56
2022/10/06 03:47:23;;;;;;;11.30;2.10;;;;;;;12.40;nan;102353.50;5112805;28;20044;-53
2022/10/06 03:49:48;;;;;;;12.25;2.40;;;;;;;12.41;nan;102363.16;5112887;28;20104;-53
2022/10/06 03:52:14;;;;;;;10.73;2.10;;;;;;;12.16;nan;102320.44;5094561;28;20035;-54
2022/10/06 03:54:39;;;;;;;8.68;1.85;;;;;;;12.07;nan;102315.28;5077704;28;20592;-56
2022/10/06 03:57:04;;;;;;;6.32;2.30;;;;;;;12.26;nan;102366.91;5094612;28;20036;-57
2022/10/06 03:59:33;;;;;;;10.73;2.35;;;;;;;12.21;nan;102363.47;5094529;28;20036;-55
2022/10/06 04:01:58;;;;;;;9.20;2.08;;;;;;;12.13;nan;102349.53;5112332;28;20035;-57
2022/10/06 04:04:23;;;;;;;6.43;2.08;;;;;;;12.24;nan;102381.03;5112805;28;20043;-55
2022/10/06 04:06:48;;;;;;;10.82;2.08;;;;;;;12.06;nan;102362.81;5111559;28;20209;-54
2022/10/06 04:09:14;;;;;;;6.78;2.17;;;;;;;12.20;nan;102393.41;5112533;28;20387;-56
2022/10/06 04:11:41;;;;;;;10.88;2.08;;;;;;;12.10;nan;102377.72;5112498;28;20039;-53
2022/10/06 04:14:09;;;;;;;14.70;2.78;;;;;;;12.15;nan;102402.28;5094320;28;20443;-51
2022/10/06 04:16:35;;;;;;;11.00;2.28;;;;;;;12.06;nan;102392.72;5112759;28;20035;-50
2022/10/06 04:19:02;;;;;;;7.53;2.50;;;;;;;11.65;nan;102345.75;5094495;28;20042;-57
2022/10/06 04:21:29;;;;;;;13.75;2.08;;;;;;;11.89;nan;102404.41;5112547;28;20501;-51
2022/10/06 04:23:56;;;;;;;8.27;2.10;;;;;;;11.83;nan;102397.44;5112417;28;20032;-54
2022/10/06 04:26:23;;;;;;;4.82;1.90;;;;;;;11.45;nan;102346.88;5112205;28;20043;-48
2022/10/06 04:28:48;;;;;;;9.27;2.67;;;;;;;11.74;nan;102411.63;5094159;28;20035;-53
2022/10/06 04:31:17;;;;;;;12.80;2.88;;;;;;;11.39;nan;102358.38;5094305;28;20462;-49
2022/10/06 04:33:45;;;;;;;7.30;2.58;;;;;;;11.72;nan;102418.69;5094284;28;20027;-54
2022/10/06 04:36:13;;;;;;;9.65;2.45;;;;;;;11.63;nan;102395.03;5077639;28;20449;-54
2022/10/06 04:38:39;;;;;;;9.93;2.38;;;;;;;11.42;nan;102347.81;5112517;28;20119;-51
2022/10/06 04:41:13;;;;;;;6.82;2.00;;;;;;;11.42;nan;102368.91;5111090;28;20455;-57
2022/10/06 04:43:38;;;;;;;11.80;2.20;;;;;;;11.62;nan;102413.47;5097164;28;20453;-51
2022/10/06 04:46:04;;;;;;;11.93;2.53;;;;;;;11.53;nan;102429.44;5116333;28;20055;-52
2022/10/06 04:48:29;;;;;;;10.75;1.70;;;;;;;11.46;nan;102419.84;5098056;28;20032;-51
2022/10/06 04:51:00;;;;;;;6.90;1.77;;;;;;;11.38;nan;102432.22;5097838;28;20134;-52
2022/10/06 04:53:26;;;;;;;12.43;2.28;;;;;;;11.23;nan;102420.97;5116214;28;20424;-57
2022/10/06 04:56:03;;;;;;;10.50;2.10;;;;;;;11.15;nan;102435.94;5115751;28;20054;-54
2022/10/06 04:58:33;;;;;;;10.68;2.33;;;;;;;11.01;nan;102416.75;5116373;28;20198;-54
2022/10/06 05:00:59;;;;;;;8.55;2.17;;;;;;;10.74;nan;102385.38;5097812;28;20557;-50
2022/10/06 05:03:27;;;;;;;11.27;2.13;;;;;;;10.65;nan;102391.59;5115598;28;20642;-53
2022/10/06 05:05:52;;;;;;;8.57;1.85;;;;;;;10.86;nan;102442.38;5097354;28;20035;-50
2022/10/06 05:08:17;;;;;;;8.88;1.85;;;;;;;10.50;nan;102391.75;5115809;28;20390;-54
2022/10/06 05:10:43;;;;;;;11.68;2.10;;;;;;;10.73;nan;102458.28;5115506;28;20154;-54
2022/10/06 05:13:10;;;;;;;9.13;1.90;;;;;;;10.60;nan;102448.72;5097678;28;20547;-53
2022/10/06 05:15:35;;;;;;;13.75;2.35;;;;;;;10.30;nan;102387.50;5097936;28;20023;-54
2022/10/06 05:18:01;;;;;;;8.90;2.28;;;;;;;10.26;nan;102389.28;5097156;28;20035;-57
2022/10/06 05:20:26;;;;;;;8.57;1.70;;;;;;;10.47;nan;102436.53;5097432;28;20058;-57
2022/10/06 05:22:51;;;;;;;7.32;2.33;;;;;;;10.34;nan;102419.06;5115395;28;20093;-54
2022/10/06 05:25:17;;;;;;;9.60;2.10;;;;;;;10.34;nan;102408.53;5115325;28;20043;-50
2022/10/06 05:27:42;;;;;;;7.38;1.80;;;;;;;10.67;nan;102455.69;5115453;28;20035;-50
2022/10/06 05:30:08;;;;;;;8.38;2.20;;;;;;;10.41;nan;102414.63;5097098;28;20054;-57
2022/10/06 05:32:33;;;;;;;5.72;2.38;;;;;;;10.46;nan;102418.97;5097274;28;20039;-58
2022/10/06 05:34:59;;;;;;;9.13;2.22;;;;;;;10.74;nan;102475.81;5096754;28;20042;-56
2022/10/06 05:37:24;;;;;;;12.48;2.53;;;;;;;10.71;nan;102470.56;5113965;28;20059;-54
2022/10/06 05:39:49;;;;;;;12.60;2.13;;;;;;;10.68;nan;102478.50;5114960;28;20036;-50
2022/10/06 05:42:15;;;;;;;10.30;2.03;;;;;;;10.76;nan;102477.56;5115326;28;20038;-55
2022/10/06 05:44:40;;;;;;;13.55;2.53;;;;;;;10.78;nan;102484.56;5115018;28;20457;-49
2022/10/06 05:47:05;;;;;;;6.82;1.55;;;;;;;10.72;nan;102488.13;5115156;28;20042;-54
2022/10/06 05:49:31;;;;;;;6.65;2.00;;;;;;;10.69;nan;102509.22;5114993;28;20386;-51
2022/10/06 05:51:56;;;;;;;10.52;2.83;;;;;;;10.65;nan;102498.72;5096690;28;20467;-51
2022/10/06 05:54:21;;;;;;;8.68;2.00;;;;;;;10.62;nan;102504.88;5114180;28;20118;-56
2022/10/06 05:56:46;;;;;;;13.10;2.78;;;;;;;10.54;nan;102496.16;5114657;28;20030;-52
2022/10/06 05:59:12;;;;;;;9.50;2.05;;;;;;;10.49;nan;102494.44;5114563;28;20439;-51
2022/10/06 06:01:39;;;;;;;8.57;1.90;;;;;;;10.14;nan;102448.13;5114725;28;20031;-53
2022/10/06 06:04:07;;;;;;;9.63;2.35;;;;;;;10.12;nan;102452.50;5114630;28;20084;-55
2022/10/06 06:06:33;;;;;;;9.77;2.78;;;;;;;10.43;nan;102495.34;5096408;28;20038;-57
2022/10/06 06:09:19;;;;;;;10.40;2.20;;;;;;;10.25;nan;102465.59;5113242;28;20512;-51
2022/10/06 06:11:46;;;;;;;11.70;1.90;;;;;;;10.51;nan;102506.69;5096583;28;20032;-55
2022/10/06 06:14:14;;;;;;;8.60;2.08;;;;;;;10.61;nan;102511.03;5096445;28;20047;-53
2022/10/06 06:16:41;;;;;;;8.85;1.95;;;;;;;10.55;nan;102510.19;5114474;28;20038;-53
2022/10/06 06:19:08;;;;;;;9.93;1.98;;;;;;;10.61;nan;102520.69;5114224;28;20050;-53
2022/10/06 06:21:33;;;;;;;11.63;1.98;;;;;;;10.61;nan;102521.56;5096158;28;20124;-57
2022/10/06 06:23:58;;;;;;;13.52;1.90;;;;;;;10.57;nan;102517.19;5114591;28;20058;-52
2022/10/06 06:26:26;;;;;;;8.60;1.92;;;;;;;10.73;nan;102541.69;5114153;28;20076;-53
2022/10/06 06:28:53;;;;;;;10.32;2.08;;;;;;;10.74;nan;102541.66;5095844;28;20114;-54
2022/10/06 06:31:26;;;;;;;8.43;1.70;;;;;;;10.54;nan;102480.34;5114156;28;20044;-53
2022/10/06 06:33:57;;;;;;;12.73;2.40;;;;;;;10.95;nan;102545.91;5095886;28;20122;-52
2022/10/06 06:36:26;;;;;;;7.97;1.83;;;;;;;10.77;nan;102514.44;5114425;28;20028;-52
2022/10/06 06:38:54;;;;;;;7.10;2.33;;;;;;;11.02;nan;102547.63;5114188;28;20035;-57
2022/10/06 06:41:20;;;;;;;10.20;2.20;;;;;;;11.07;nan;102552.88;5113881;28;20035;-54
2022/10/06 06:43:46;;;;;;;9.90;2.15;;;;;;;11.08;nan;102565.16;5095840;28;20114;-55
2022/10/06 06:46:13;;;;;;;8.90;2.47;;;;;;;11.10;nan;102561.63;5113365;28;20032;-52
2022/10/06 06:48:39;;;;;;;10.77;1.92;;;;;;;11.09;nan;102566.94;5113820;28;20038;-55
2022/10/06 06:51:06;;;;;;;6.60;1.92;;;;;;;10.91;nan;102528.41;5113682;28;20076;-52
2022/10/06 06:53:32;;;;;;;11.75;2.35;;;;;;;10.88;nan;102531.06;5114040;28;20140;-52
2022/10/06 06:55:57;;;;;;;6.90;2.33;;;;;;;11.22;nan;102577.34;5113583;28;20027;-55
2022/10/06 06:58:22;;;;;;;11.10;2.17;;;;;;;11.00;nan;102536.25;5095295;28;20070;-55
2022/10/06 07:00:48;;;;;;;10.80;2.65;;;;;;;11.37;nan;102586.03;5113559;28;20035;-53
2022/10/06 07:03:16;;;;;;;10.98;2.63;;;;;;;11.41;nan;102591.28;5113468;28;20077;-56
2022/10/06 07:05:45;;;;;;;11.40;2.63;;;;;;;11.20;nan;102549.25;5112765;28;20114;-55
2022/10/06 07:08:12;;;;;;;8.15;1.98;;;;;;;11.66;nan;102613.03;5113207;28;20253;-53
2022/10/06 07:10:37;;;;;;;13.35;2.20;;;;;;;11.86;nan;102619.03;5112729;28;20051;-55
2022/10/06 07:13:03;;;;;;;11.65;2.17;;;;;;;11.88;nan;102580.31;5082288;28;20043;-58
2022/10/06 07:26:29;;;;;;;6.93;1.70;;;;;;;12.97;nan;102652.97;5113464;28;20051;-56
2022/10/06 07:28:58;;;;;;;9.53;1.87;;;;;;;13.10;nan;102659.00;5095601;28;20032;-54
2022/10/06 07:31:26;;;;;;;10.27;1.95;;;;;;;13.21;nan;102652.66;5111712;28;20420;-54
2022/10/06 07:33:51;;;;;;;11.55;2.05;;;;;;;13.19;nan;102649.13;5095153;28;20386;-54
2022/10/06 07:36:17;;;;;;;7.15;2.75;;;;;;;13.06;nan;102614.94;5113036;28;20039;-53
2022/10/06 07:38:42;;;;;;;8.82;1.58;;;;;;;13.10;nan;102624.63;5112898;28;20062;-55
2022/10/06 07:41:07;;;;;;;6.75;1.65;;;;;;;13.40;nan;102680.56;5094866;28;20067;-54
2022/10/06 07:43:33;;;;;;;7.95;2.05;;;;;;;13.41;nan;102661.16;5113013;28;20486;-50
2022/10/06 07:45:58;;;;;;;10.98;1.70;;;;;;;13.31;nan;102632.25;5112548;28;20114;-53
2022/10/06 07:48:23;;;;;;;7.57;1.67;;;;;;;13.43;nan;102650.53;5094851;28;20023;-54
2022/10/06 07:50:50;;;;;;;8.52;2.25;;;;;;;13.66;nan;102695.19;5112490;28;20040;-56
2022/10/06 07:53:17;;;;;;;10.55;2.10;;;;;;;13.47;nan;102658.44;5094656;28;20058;-54
2022/10/06 07:55:45;;;;;;;8.60;2.05;;;;;;;13.77;nan;102680.88;5094542;28;20027;-52
2022/10/06 07:58:21;;;;;;;6.07;2.03;;;;;;;13.14;nan;102568.13;5094832;28;20023;-55
2022/10/06 08:00:51;;;;;;;6.18;1.73;;;;;;;13.95;nan;102700.88;5112686;28;20461;-53
2022/10/06 08:03:17;;;;;;;7.22;1.58;;;;;;;14.06;nan;102705.09;5112535;28;20032;-56
2022/10/06 08:05:44;;;;;;;9.23;1.92;;;;;;;14.12;nan;102716.47;5112745;28;20070;-53
2022/10/06 08:08:10;;;;;;;7.25;1.83;;;;;;;14.34;nan;102720.50;5112483;28;20067;-57
2022/10/06 08:10:35;;;;;;;6.47;1.80;;;;;;;14.22;nan;102702.16;5112566;28;20337;-55
2022/10/06 08:13:04;;;;;;;9.40;1.67;;;;;;;14.51;nan;102729.91;5112979;28;20032;-55
2022/10/06 08:15:29;;;;;;;9.25;1.73;;;;;;;14.64;nan;102744.69;5112594;28;20031;-52
2022/10/06 08:17:54;;;;;;;7.38;1.80;;;;;;;14.75;nan;102740.94;5114396;28;20081;-57
2022/10/06 08:20:20;;;;;;;4.05;1.17;;;;;;;14.90;nan;102737.97;5116439;28;20432;-53
2022/10/06 08:22:46;;;;;;;9.90;1.60;;;;;;;15.16;nan;102740.97;5098715;28;20506;-56
2022/10/06 08:25:11;;;;;;;7.18;1.67;;;;;;;15.29;nan;102744.25;5116510;28;20066;-56
2022/10/06 08:27:37;;;;;;;5.72;1.23;;;;;;;15.32;nan;102765.41;5116490;28;20067;-51
2022/10/06 08:30:04;;;;;;;5.95;1.55;;;;;;;15.12;nan;102708.31;5116299;28;20042;-56
2022/10/06 08:32:31;;;;;;;5.15;1.40;;;;;;;15.73;nan;102762.72;5116010;28;20028;-54
2022/10/06 08:34:57;;;;;;;5.63;1.38;;;;;;;16.42;nan;102772.50;5081275;28;20028;-50
2022/10/06 08:37:26;;;;;;;5.03;1.40;;;;;;;17.12;nan;102756.41;5116019;28;20092;-51
2022/10/06 08:39:54;;;;;;;4.72;1.35;;;;;;;17.73;nan;102786.50;5116062;28;20043;-55
2022/10/06 08:42:37;;;;;;;5.18;1.70;;;;;;;18.54;nan;102814.94;5116427;28;20044;-55
2022/10/06 08:45:08;;;;;;;5.95;1.75;;;;;;;18.98;nan;102806.25;5115103;28;20054;-54
2022/10/06 08:47:34;;;;;;;7.97;2.15;;;;;;;19.26;nan;102775.88;5098264;28;20453;-55
2022/10/06 08:50:01;;;;;;;5.07;1.20;;;;;;;19.39;nan;102802.06;5097902;28;20027;-59
2022/10/06 08:52:53;;;;;;;4.03;1.30;;;;;;;20.12;nan;102842.78;5097394;28;20106;-56
2022/10/06 08:55:27;;;;;;;5.03;1.20;;;;;;;20.77;nan;102852.56;5114521;28;20369;-57
2022/10/06 08:58:29;;;;;;;9.00;1.58;;;;;;;21.11;nan;102854.66;5116140;28;20036;-56
2022/10/06 09:01:08;;;;;;;5.78;1.17;;;;;;;21.13;nan;102842.94;5095953;28;20611;-53
2022/10/06 09:03:34;;;;;;;6.88;1.27;;;;;;;21.07;nan;102845.84;5115507;28;20395;-58
2022/10/06 09:06:24;;;;;;;4.97;1.77;;;;;;;20.59;nan;102848.00;5115365;28;20039;-55
2022/10/06 09:08:53;;;;;;;4.57;1.27;;;;;;;21.07;nan;102823.59;5115947;28;20027;-54
2022/10/06 09:11:35;;;;;;;7.03;1.45;;;;;;;21.35;nan;102828.59;5097058;28;20048;-56
2022/10/06 09:14:07;;;;;;;5.97;1.20;;;;;;;21.05;nan;102868.28;5114121;28;20522;-58
2022/10/06 09:16:36;;;;;;;5.00;1.20;;;;;;;20.76;nan;102853.50;5097538;28;20031;-55
2022/10/06 09:19:14;;;;;;;3.90;1.08;;;;;;;20.59;nan;102867.63;5097714;28;20028;-54
2022/10/06 09:21:45;;;;;;;1.90;0.88;;;;;;;20.48;nan;102853.81;5114419;28;20023;-55
2022/10/06 09:24:16;;;;;;;8.33;1.87;;;;;;;20.07;nan;102870.66;5097042;28;20502;-55
2022/10/06 09:26:43;;;;;;;;;;;;;;;19.17;nan;102858.97;5115625;28;20284;-57
2022/10/06 09:29:08;;;;;;;6.10;1.42;;;;;;;18.51;nan;102871.03;5114662;28;19951;-51
2022/10/06 09:31:40;;;;;;;6.20;1.48;;;;;;;18.10;nan;102861.69;5097339;28;20474;-56
2022/10/06 09:34:33;;;;;;;5.38;1.20;;;;;;;18.07;nan;102852.94;5115498;28;20359;-54
2022/10/06 09:37:06;;;;;;;4.38;1.05;;;;;;;18.14;nan;102807.38;5096867;28;20023;-54
2022/10/06 09:39:37;;;;;;;8.88;1.90;;;;;;;18.73;nan;102861.41;5114875;28;20043;-59
2022/10/06 09:42:08;;;;;;;6.55;1.40;;;;;;;19.44;nan;102863.34;5113998;28;20160;-52
2022/10/06 09:44:43;;;;;;;7.38;1.92;;;;;;;20.37;nan;102868.56;5114222;28;20035;-54
2022/10/06 09:47:32;;;;;;;6.70;1.75;;;;;;;21.22;nan;102873.78;5113842;28;20039;-57
2022/10/06 09:50:18;;;;;;;6.00;1.38;;;;;;;21.16;nan;102877.63;5104109;28;20123;-52
2022/10/06 09:53:08;;;;;;;4.03;1.13;;;;;;;20.10;nan;102876.75;5106083;28;20435;-58
2022/10/06 09:55:36;;;;;;;6.20;1.33;;;;;;;19.23;nan;102880.09;5111314;28;20069;-52
2022/10/06 09:58:03;;;;;;;4.90;1.33;;;;;;;18.93;nan;102874.06;5112931;28;20027;-58
2022/10/06 10:00:30;;;;;;;6.15;1.30;;;;;;;19.04;nan;102875.41;5113553;28;20062;-54
2022/10/06 10:03:04;;;;;;;12.45;2.03;;;;;;;18.80;nan;102873.59;5112887;28;20035;-53
2022/10/06 10:05:32;;;;;;;7.00;1.63;;;;;;;18.67;nan;102872.28;5094282;28;20071;-54
2022/10/06 10:08:02;;;;;;;4.95;1.25;;;;;;;18.49;nan;102876.44;5077657;28;20368;-55
2022/10/06 10:10:27;;;;;;;4.88;1.70;;;;;;;18.28;nan;102885.09;5094314;28;20083;-56
2022/10/06 10:12:55;;;;;;;3.80;1.17;;;;;;;17.65;nan;102832.03;5112678;28;20066;-55
2022/10/06 10:15:20;;;;;;;6.05;1.45;;;;;;;17.67;nan;102866.59;5112911;28;20233;-56
2022/10/06 10:17:50;;;;;;;8.55;1.30;;;;;;;17.18;nan;102809.44;5112907;28;20089;-56
2022/10/06 10:20:32;;;;;;;5.88;1.38;;;;;;;17.26;nan;102842.03;5094614;28;20114;-52
2022/10/06 10:23:02;;;;;;;10.05;2.35;;;;;;;17.27;nan;102862.41;5112460;28;20047;-56
2022/10/06 10:25:52;;;;;;;6.18;1.65;;;;;;;17.44;nan;102876.13;5112849;28;20034;-55
2022/10/06 10:29:02;;;;;;;8.05;1.77;;;;;;;17.55;nan;102882.94;5112643;28;20119;-57
2022/10/06 10:31:48;;;;;;;5.65;1.80;;;;;;;17.69;nan;102886.06;5029253;28;20578;-59
2022/10/06 10:34:41;;;;;;;7.22;1.70;;;;;;;17.78;nan;102907.09;5093524;28;20059;-59
2022/10/06 10:37:16;;;;;;;6.18;1.65;;;;;;;17.97;nan;102913.63;5094343;28;20081;-57
2022/10/06 10:39:49;;;;;;;6.70;1.65;;;;;;;18.21;nan;102906.69;5094096;28;20123;-58
2022/10/06 10:42:29;;;;;;;9.95;2.10;;;;;;;18.24;nan;102864.78;5113023;28;20039;-56
2022/10/06 10:45:00;;;;;;;4.85;1.77;;;;;;;18.27;nan;102862.00;5094332;28;20450;-59
2022/10/06 10:47:26;;;;;;;4.93;1.40;;;;;;;18.48;nan;102909.34;5094434;28;20039;-55
2022/10/06 10:50:25;;;;;;;4.85;1.50;;;;;;;18.45;nan;102898.75;5094161;28;20035;-55
2022/10/06 10:52:55;;;;;;;4.53;1.30;;;;;;;18.32;nan;102907.22;5078403;28;20035;-58
2022/10/06 10:55:34;;;;;;;4.47;1.58;;;;;;;18.56;nan;102903.78;5094405;28;20042;-56
2022/10/06 10:58:26;;;;;;;7.82;1.75;;;;;;;18.62;nan;102919.59;5112423;28;20399;-55
2022/10/06 11:01:01;;;;;;;5.57;1.63;;;;;;;18.89;nan;102917.75;5085363;28;20078;-56
2022/10/06 11:03:26;;;;;;;6.10;1.20;;;;;;;19.16;nan;102899.91;5112451;28;20489;-57
2022/10/06 11:06:10;;;;;;;4.40;1.65;;;;;;;19.56;nan;102909.13;5094632;28;20065;-58
2022/10/06 11:08:58;;;;;;;7.00;1.33;;;;;;;20.40;nan;102917.44;5095117;28;20046;-57
2022/10/06 11:11:48;;;;;;;6.97;2.42;;;;;;;21.47;nan;102924.47;5065723;28;20135;-58
2022/10/06 11:14:56;;;;;;;5.95;1.65;;;;;;;22.51;nan;102929.38;5071338;28;20103;-57
2022/10/06 11:17:38;;;;;;;6.25;1.50;;;;;;;22.83;nan;102928.66;5070767;28;20472;-57
2022/10/06 11:20:19;;;;;;;6.43;1.50;;;;;;;22.12;nan;102930.38;5072755;28;20036;-56
2022/10/06 11:22:54;;;;;;;6.63;1.58;;;;;;;22.20;nan;102879.91;5072555;28;20040;-55
2022/10/06 11:25:40;;;;;;;7.88;1.67;;;;;;;23.45;nan;102920.94;5072657;28;20028;-57
2022/10/06 11:28:38;;;;;;;3.85;1.13;;;;;;;24.64;nan;102926.75;5071225;28;20024;-57
2022/10/06 11:31:29;;;;;;;5.68;1.35;;;;;;;24.97;nan;102923.91;5071812;28;20123;-57
2022/10/06 11:33:59;;;;;;;7.70;1.70;;;;;;;25.87;nan;102931.81;5069782;28;20537;-57
2022/10/06 11:36:37;;;;;;;;;;;;;;;26.48;nan;102931.41;5071926;28;20037;-56
2022/10/06 11:39:25;;;;;;;6.47;1.70;;;;;;;26.95;nan;102923.72;5070379;28;20007;-55
2022/10/06 11:42:27;;;;;;;6.28;1.55;;;;;;;27.06;nan;102888.69;5069858;28;20040;-55
2022/10/06 11:45:02;;;;;;;5.35;1.48;;;;;;;27.59;nan;102943.59;5070791;28;20041;-60
2022/10/06 11:47:35;;;;;;;9.70;1.90;;;;;;;27.42;nan;102930.38;5071385;28;20111;-58
2022/10/06 11:50:01;;;;;;;6.60;2.00;;;;;;;27.04;nan;102925.78;5069947;28;20107;-56
2022/10/06 11:52:27;;;;;;;5.55;1.50;;;;;;;26.57;nan;102938.91;5070940;28;20115;-55
2022/10/06 11:54:54;;;;;;;5.85;1.92;;;;;;;26.02;nan;102923.63;5070875;28;20064;-52
2022/10/06 11:57:23;;;;;;;5.72;1.38;;;;;;;26.59;nan;102931.59;5069921;28;20499;-54
2022/10/06 12:00:03;;;;;;;6.68;1.85;;;;;;;26.95;nan;102923.72;5070865;28;20490;-56
2022/10/06 12:02:29;;;;;;;5.90;1.55;;;;;;;27.15;nan;102931.31;5071042;28;20032;-55